sensor_id;sensor_type;location;lat;lon;timestamp;pressure;altitude;pressure_sealevel;temperature;humidity
49122;BME280;35529;44.342;25.944;2023-01-25T00:01:38;102477.28;;;2.79;100.00
49122;BME280;35529;44.342;25.944;2023-01-25T00:04:04;102484.16;;;2.80;100.00
49122;BME280;35529;44.342;25.944;2023-01-25T00:06:33;102483.25;;;2.81;100.00
49122;BME280;35529;44.342;25.944;2023-01-25T00:08:59;102492.81;;;2.82;100.00
49122;BME280;35529;44.342;25.944;2023-01-25T00:11:25;102484.00;;;2.83;100.00
49122;BME280;35529;44.342;25.944;2023-01-25T00:13:52;102482.50;;;2.79;100.00
49122;BME280;35529;44.342;25.944;2023-01-25T00:16:21;102481.84;;;2.75;100.00
49122;BME280;35529;44.342;25.944;2023-01-25T00:18:49;102484.47;;;2.75;100.00
49122;BME280;35529;44.342;25.944;2023-01-25T00:21:20;102482.88;;;2.73;100.00
49122;BME280;35529;44.342;25.944;2023-01-25T00:23:47;102492.66;;;2.71;100.00
49122;BME280;35529;44.342;25.944;2023-01-25T00:26:14;102489.56;;;2.64;100.00
49122;BME280;35529;44.342;25.944;2023-01-25T00:28:40;102488.13;;;2.58;100.00
49122;BME280;35529;44.342;25.944;2023-01-25T00:31:06;102489.06;;;2.57;100.00
49122;BME280;35529;44.342;25.944;2023-01-25T00:36:02;102479.31;;;2.45;100.00
49122;BME280;35529;44.342;25.944;2023-01-25T00:38:48;102472.50;;;2.42;100.00
49122;BME280;35529;44.342;25.944;2023-01-25T00:41:14;102485.59;;;2.42;100.00
49122;BME280;35529;44.342;25.944;2023-01-25T00:43:40;102474.28;;;2.42;100.00
49122;BME280;35529;44.342;25.944;2023-01-25T00:46:07;102477.16;;;2.37;100.00
49122;BME280;35529;44.342;25.944;2023-01-25T00:48:33;102482.59;;;2.34;100.00
49122;BME280;35529;44.342;25.944;2023-01-25T00:51:00;102481.88;;;2.32;100.00
49122;BME280;35529;44.342;25.944;2023-01-25T00:53:26;102478.97;;;2.37;100.00
49122;BME280;35529;44.342;25.944;2023-01-25T00:55:52;102478.03;;;2.38;100.00
49122;BME280;35529;44.342;25.944;2023-01-25T00:58:18;102472.88;;;2.36;100.00
49122;BME280;35529;44.342;25.944;2023-01-25T01:00:44;102480.28;;;2.29;100.00
49122;BME280;35529;44.342;25.944;2023-01-25T01:03:11;102476.78;;;2.29;100.00
49122;BME280;35529;44.342;25.944;2023-01-25T01:05:37;102471.66;;;2.27;100.00
49122;BME280;35529;44.342;25.944;2023-01-25T01:08:03;102469.03;;;2.27;100.00
49122;BME280;35529;44.342;25.944;2023-01-25T01:10:29;102467.16;;;2.29;100.00
49122;BME280;35529;44.342;25.944;2023-01-25T01:12:55;102467.44;;;2.25;100.00
49122;BME280;35529;44.342;25.944;2023-01-25T01:15:21;102457.81;;;2.25;100.00
49122;BME280;35529;44.342;25.944;2023-01-25T01:17:47;102459.84;;;2.20;100.00
49122;BME280;35529;44.342;25.944;2023-01-25T01:20:13;102457.69;;;2.12;100.00
49122;BME280;35529;44.342;25.944;2023-01-25T01:22:39;102451.78;;;2.09;100.00
49122;BME280;35529;44.342;25.944;2023-01-25T01:25:06;102452.66;;;2.09;100.00
49122;BME280;35529;44.342;25.944;2023-01-25T01:27:32;102445.91;;;2.05;100.00
49122;BME280;35529;44.342;25.944;2023-01-25T01:29:58;102458.34;;;2.01;100.00
49122;BME280;35529;44.342;25.944;2023-01-25T01:32:24;102452.25;;;2.01;100.00
49122;BME280;35529;44.342;25.944;2023-01-25T01:34:50;102450.28;;;2.05;100.00
49122;BME280;35529;44.342;25.944;2023-01-25T01:37:17;102448.25;;;2.10;100.00
49122;BME280;35529;44.342;25.944;2023-01-25T01:39:43;102444.03;;;2.07;100.00
49122;BME280;35529;44.342;25.944;2023-01-25T01:42:09;102441.31;;;2.09;100.00
49122;BME280;35529;44.342;25.944;2023-01-25T01:47:14;102434.56;;;2.05;100.00
49122;BME280;35529;44.342;25.944;2023-01-25T01:49:43;102440.72;;;2.04;100.00
49122;BME280;35529;44.342;25.944;2023-01-25T01:52:12;102440.00;;;2.01;100.00
49122;BME280;35529;44.342;25.944;2023-01-25T01:54:44;102431.00;;;1.91;100.00
49122;BME280;35529;44.342;25.944;2023-01-25T01:57:13;102428.66;;;1.87;100.00
49122;BME280;35529;44.342;25.944;2023-01-25T01:59:48;102432.41;;;1.97;100.00
49122;BME280;35529;44.342;25.944;2023-01-25T02:02:15;102430.53;;;1.99;100.00
49122;BME280;35529;44.342;25.944;2023-01-25T02:04:42;102426.13;;;1.99;100.00
49122;BME280;35529;44.342;25.944;2023-01-25T02:09:41;102426.34;;;2.11;100.00
49122;BME280;35529;44.342;25.944;2023-01-25T02:12:08;102413.81;;;2.16;100.00
49122;BME280;35529;44.342;25.944;2023-01-25T02:14:35;102421.28;;;2.22;100.00
49122;BME280;35529;44.342;25.944;2023-01-25T02:17:05;102425.03;;;2.18;100.00
49122;BME280;35529;44.342;25.944;2023-01-25T02:22:00;102416.97;;;2.07;100.00
49122;BME280;35529;44.342;25.944;2023-01-25T02:24:32;102417.25;;;2.02;100.00
49122;BME280;35529;44.342;25.944;2023-01-25T02:26:59;102410.06;;;2.06;100.00
49122;BME280;35529;44.342;25.944;2023-01-25T02:29:26;102414.06;;;2.11;100.00
49122;BME280;35529;44.342;25.944;2023-01-25T02:32:03;102410.53;;;2.12;100.00
49122;BME280;35529;44.342;25.944;2023-01-25T02:34:29;102413.03;;;2.14;100.00
49122;BME280;35529;44.342;25.944;2023-01-25T02:37:01;102414.06;;;2.11;100.00
49122;BME280;35529;44.342;25.944;2023-01-25T02:39:27;102416.44;;;2.16;100.00
49122;BME280;35529;44.342;25.944;2023-01-25T02:41:56;102412.22;;;2.13;100.00
49122;BME280;35529;44.342;25.944;2023-01-25T02:44:23;102407.59;;;2.17;100.00
49122;BME280;35529;44.342;25.944;2023-01-25T02:46:50;102411.81;;;2.20;100.00
49122;BME280;35529;44.342;25.944;2023-01-25T02:49:17;102412.69;;;2.20;100.00
49122;BME280;35529;44.342;25.944;2023-01-25T02:51:44;102415.47;;;2.17;100.00
49122;BME280;35529;44.342;25.944;2023-01-25T02:54:12;102409.13;;;2.21;100.00
49122;BME280;35529;44.342;25.944;2023-01-25T02:56:38;102420.44;;;2.22;100.00
49122;BME280;35529;44.342;25.944;2023-01-25T02:59:08;102417.94;;;2.20;100.00
49122;BME280;35529;44.342;25.944;2023-01-25T03:01:35;102414.75;;;2.15;100.00
49122;BME280;35529;44.342;25.944;2023-01-25T03:04:01;102417.16;;;2.18;100.00
49122;BME280;35529;44.342;25.944;2023-01-25T03:06:27;102412.22;;;2.13;100.00
49122;BME280;35529;44.342;25.944;2023-01-25T03:08:56;102420.56;;;2.20;100.00
49122;BME280;35529;44.342;25.944;2023-01-25T03:11:22;102410.16;;;2.18;100.00
49122;BME280;35529;44.342;25.944;2023-01-25T03:13:48;102406.97;;;2.13;100.00
49122;BME280;35529;44.342;25.944;2023-01-25T03:16:14;102397.78;;;2.21;100.00
49122;BME280;35529;44.342;25.944;2023-01-25T03:18:40;102399.47;;;2.22;100.00
49122;BME280;35529;44.342;25.944;2023-01-25T03:21:16;102403.22;;;2.17;100.00
49122;BME280;35529;44.342;25.944;2023-01-25T03:23:43;102399.94;;;2.14;100.00
49122;BME280;35529;44.342;25.944;2023-01-25T03:26:20;102399.22;;;2.12;100.00
49122;BME280;35529;44.342;25.944;2023-01-25T03:28:47;102401.72;;;2.13;100.00
49122;BME280;35529;44.342;25.944;2023-01-25T03:31:13;102395.63;;;2.13;100.00
49122;BME280;35529;44.342;25.944;2023-01-25T03:33:40;102392.47;;;2.08;100.00
49122;BME280;35529;44.342;25.944;2023-01-25T03:36:06;102397.53;;;2.11;100.00
49122;BME280;35529;44.342;25.944;2023-01-25T03:38:33;102404.63;;;2.09;100.00
49122;BME280;35529;44.342;25.944;2023-01-25T03:41:00;102398.91;;;2.02;100.00
49122;BME280;35529;44.342;25.944;2023-01-25T03:43:27;102405.56;;;2.08;100.00
49122;BME280;35529;44.342;25.944;2023-01-25T03:45:56;102400.41;;;2.06;100.00
49122;BME280;35529;44.342;25.944;2023-01-25T03:48:22;102399.75;;;2.03;100.00
49122;BME280;35529;44.342;25.944;2023-01-25T03:50:52;102405.84;;;2.03;100.00
49122;BME280;35529;44.342;25.944;2023-01-25T03:53:19;102401.25;;;2.07;100.00
49122;BME280;35529;44.342;25.944;2023-01-25T03:55:53;102406.59;;;2.05;100.00
49122;BME280;35529;44.342;25.944;2023-01-25T03:58:20;102395.25;;;2.05;100.00
49122;BME280;35529;44.342;25.944;2023-01-25T04:00:46;102399.84;;;2.15;100.00
49122;BME280;35529;44.342;25.944;2023-01-25T04:03:12;102403.13;;;2.19;100.00
49122;BME280;35529;44.342;25.944;2023-01-25T04:05:44;102392.34;;;2.24;100.00
49122;BME280;35529;44.342;25.944;2023-01-25T04:08:11;102395.63;;;2.27;100.00
49122;BME280;35529;44.342;25.944;2023-01-25T04:10:42;102402.00;;;2.23;100.00
49122;BME280;35529;44.342;25.944;2023-01-25T04:13:09;102403.03;;;2.21;100.00
49122;BME280;35529;44.342;25.944;2023-01-25T04:15:35;102400.22;;;2.24;100.00
49122;BME280;35529;44.342;25.944;2023-01-25T04:18:01;102397.88;;;2.19;100.00
49122;BME280;35529;44.342;25.944;2023-01-25T04:20:27;102404.63;;;2.23;100.00
49122;BME280;35529;44.342;25.944;2023-01-25T04:22:53;102401.06;;;2.24;100.00
49122;BME280;35529;44.342;25.944;2023-01-25T04:25:19;102396.75;;;2.23;100.00
49122;BME280;35529;44.342;25.944;2023-01-25T04:27:45;102397.44;;;2.27;100.00
49122;BME280;35529;44.342;25.944;2023-01-25T04:30:11;102402.84;;;2.24;100.00
49122;BME280;35529;44.342;25.944;2023-01-25T04:32:37;102403.59;;;2.26;100.00
49122;BME280;35529;44.342;25.944;2023-01-25T04:35:04;102406.22;;;2.26;100.00
49122;BME280;35529;44.342;25.944;2023-01-25T04:37:30;102401.91;;;2.25;100.00
49122;BME280;35529;44.342;25.944;2023-01-25T04:39:56;102398.44;;;2.24;100.00
49122;BME280;35529;44.342;25.944;2023-01-25T04:42:22;102403.50;;;2.27;100.00
49122;BME280;35529;44.342;25.944;2023-01-25T04:44:48;102408.75;;;2.27;100.00
49122;BME280;35529;44.342;25.944;2023-01-25T04:47:14;102405.19;;;2.28;100.00
49122;BME280;35529;44.342;25.944;2023-01-25T04:49:40;102402.84;;;2.24;100.00
49122;BME280;35529;44.342;25.944;2023-01-25T04:52:06;102403.69;;;2.24;100.00
49122;BME280;35529;44.342;25.944;2023-01-25T04:54:32;102409.66;;;2.26;100.00
49122;BME280;35529;44.342;25.944;2023-01-25T04:56:58;102410.53;;;2.27;100.00
49122;BME280;35529;44.342;25.944;2023-01-25T04:59:25;102408.00;;;2.25;100.00
49122;BME280;35529;44.342;25.944;2023-01-25T05:01:51;102406.31;;;2.24;100.00
49122;BME280;35529;44.342;25.944;2023-01-25T05:04:17;102408.84;;;2.26;100.00
49122;BME280;35529;44.342;25.944;2023-01-25T05:06:43;102403.50;;;2.27;100.00
49122;BME280;35529;44.342;25.944;2023-01-25T05:09:09;102413.72;;;2.32;100.00
49122;BME280;35529;44.342;25.944;2023-01-25T05:11:35;102401.81;;;2.26;100.00
49122;BME280;35529;44.342;25.944;2023-01-25T05:14:01;102405.56;;;2.22;100.00
49122;BME280;35529;44.342;25.944;2023-01-25T05:16:27;102401.06;;;2.24;100.00
49122;BME280;35529;44.342;25.944;2023-01-25T05:18:54;102398.56;;;2.23;100.00
49122;BME280;35529;44.342;25.944;2023-01-25T05:21:20;102400.16;;;2.25;100.00
49122;BME280;35529;44.342;25.944;2023-01-25T05:24:05;102417.25;;;2.31;100.00
49122;BME280;35529;44.342;25.944;2023-01-25T05:26:31;102405.91;;;2.30;100.00
49122;BME280;35529;44.342;25.944;2023-01-25T05:29:16;102411.94;;;2.32;100.00
49122;BME280;35529;44.342;25.944;2023-01-25T05:31:42;102418.28;;;2.28;100.00
49122;BME280;35529;44.342;25.944;2023-01-25T05:34:08;102419.22;;;2.27;100.00
49122;BME280;35529;44.342;25.944;2023-01-25T05:36:34;102410.63;;;2.25;100.00
49122;BME280;35529;44.342;25.944;2023-01-25T05:39:00;102414.19;;;2.24;100.00
49122;BME280;35529;44.342;25.944;2023-01-25T05:41:26;102407.81;;;2.14;100.00
49122;BME280;35529;44.342;25.944;2023-01-25T05:43:52;102408.66;;;2.14;100.00
49122;BME280;35529;44.342;25.944;2023-01-25T05:46:18;102404.25;;;2.15;100.00
49122;BME280;35529;44.342;25.944;2023-01-25T05:48:47;102402.38;;;2.17;100.00
49122;BME280;35529;44.342;25.944;2023-01-25T05:51:13;102407.91;;;2.12;100.00
49122;BME280;35529;44.342;25.944;2023-01-25T05:53:39;102409.59;;;2.13;100.00
49122;BME280;35529;44.342;25.944;2023-01-25T05:56:06;102407.53;;;2.18;100.00
49122;BME280;35529;44.342;25.944;2023-01-25T05:58:32;102410.78;;;2.22;100.00
49122;BME280;35529;44.342;25.944;2023-01-25T06:00:59;102423.34;;;2.31;100.00
49122;BME280;35529;44.342;25.944;2023-01-25T06:03:25;102425.88;;;2.33;100.00
49122;BME280;35529;44.342;25.944;2023-01-25T06:05:55;102423.25;;;2.33;100.00
49122;BME280;35529;44.342;25.944;2023-01-25T06:08:21;102430.56;;;2.28;100.00
49122;BME280;35529;44.342;25.944;2023-01-25T06:10:47;102428.13;;;2.25;100.00
49122;BME280;35529;44.342;25.944;2023-01-25T06:13:13;102431.41;;;2.28;100.00
49122;BME280;35529;44.342;25.944;2023-01-25T06:15:39;102425.41;;;2.26;100.00
49122;BME280;35529;44.342;25.944;2023-01-25T06:18:05;102431.41;;;2.28;100.00
49122;BME280;35529;44.342;25.944;2023-01-25T06:20:31;102431.50;;;2.27;100.00
49122;BME280;35529;44.342;25.944;2023-01-25T06:22:58;102433.09;;;2.29;100.00
49122;BME280;35529;44.342;25.944;2023-01-25T06:25:24;102430.06;;;2.35;100.00
49122;BME280;35529;44.342;25.944;2023-01-25T06:27:50;102425.50;;;2.39;100.00
49122;BME280;35529;44.342;25.944;2023-01-25T06:30:16;102435.69;;;2.44;100.00
49122;BME280;35529;44.342;25.944;2023-01-25T06:32:42;102430.44;;;2.44;100.00
49122;BME280;35529;44.342;25.944;2023-01-25T06:35:08;102435.41;;;2.48;100.00
49122;BME280;35529;44.342;25.944;2023-01-25T06:37:34;102442.25;;;2.51;100.00
49122;BME280;35529;44.342;25.944;2023-01-25T06:40:00;102441.84;;;2.57;100.00
49122;BME280;35529;44.342;25.944;2023-01-25T06:42:27;102446.63;;;2.65;100.00
49122;BME280;35529;44.342;25.944;2023-01-25T06:44:53;102443.84;;;2.68;100.00
49122;BME280;35529;44.342;25.944;2023-01-25T06:47:19;102439.06;;;2.75;100.00
49122;BME280;35529;44.342;25.944;2023-01-25T06:49:45;102446.41;;;2.82;100.00
49122;BME280;35529;44.342;25.944;2023-01-25T06:52:14;102435.75;;;2.85;100.00
49122;BME280;35529;44.342;25.944;2023-01-25T06:54:40;102445.94;;;2.90;100.00
49122;BME280;35529;44.342;25.944;2023-01-25T06:57:06;102442.19;;;2.94;100.00
49122;BME280;35529;44.342;25.944;2023-01-25T06:59:35;102439.28;;;2.99;100.00
49122;BME280;35529;44.342;25.944;2023-01-25T07:02:01;102433.28;;;3.24;100.00
49122;BME280;35529;44.342;25.944;2023-01-25T07:04:27;102434.91;;;3.40;100.00
49122;BME280;35529;44.342;25.944;2023-01-25T07:06:53;102434.28;;;3.49;100.00
49122;BME280;35529;44.342;25.944;2023-01-25T07:09:19;102434.72;;;3.56;100.00
49122;BME280;35529;44.342;25.944;2023-01-25T07:11:49;102433.91;;;3.55;100.00
49122;BME280;35529;44.342;25.944;2023-01-25T07:14:15;102436.41;;;3.57;100.00
49122;BME280;35529;44.342;25.944;2023-01-25T07:16:41;102435.38;;;3.59;100.00
49122;BME280;35529;44.342;25.944;2023-01-25T07:19:08;102439.88;;;3.57;100.00
49122;BME280;35529;44.342;25.944;2023-01-25T07:21:35;102448.06;;;3.52;100.00
49122;BME280;35529;44.342;25.944;2023-01-25T07:24:03;102453.59;;;3.48;100.00
49122;BME280;35529;44.342;25.944;2023-01-25T07:26:29;102454.47;;;3.48;100.00
49122;BME280;35529;44.342;25.944;2023-01-25T07:28:56;102448.34;;;3.48;100.00
49122;BME280;35529;44.342;25.944;2023-01-25T07:31:22;102448.34;;;3.48;100.00
49122;BME280;35529;44.342;25.944;2023-01-25T07:33:49;102458.03;;;3.47;100.00
49122;BME280;35529;44.342;25.944;2023-01-25T07:36:16;102453.81;;;3.45;100.00
49122;BME280;35529;44.342;25.944;2023-01-25T07:38:42;102458.53;;;3.40;100.00
49122;BME280;35529;44.342;25.944;2023-01-25T07:41:08;102454.09;;;3.40;100.00
49122;BME280;35529;44.342;25.944;2023-01-25T07:43:35;102454.53;;;3.47;100.00
49122;BME280;35529;44.342;25.944;2023-01-25T07:46:02;102451.84;;;3.48;100.00
49122;BME280;35529;44.342;25.944;2023-01-25T07:48:28;102450.25;;;3.46;100.00
49122;BME280;35529;44.342;25.944;2023-01-25T07:50:58;102461.16;;;3.40;100.00
49122;BME280;35529;44.342;25.944;2023-01-25T07:53:38;102454.16;;;3.53;100.00
49122;BME280;35529;44.342;25.944;2023-01-25T07:56:04;102464.44;;;3.56;100.00
49122;BME280;35529;44.342;25.944;2023-01-25T07:58:31;102457.44;;;3.57;100.00
49122;BME280;35529;44.342;25.944;2023-01-25T08:00:57;102457.22;;;3.60;100.00
49122;BME280;35529;44.342;25.944;2023-01-25T08:03:23;102460.38;;;3.65;100.00
49122;BME280;35529;44.342;25.944;2023-01-25T08:05:49;102450.00;;;3.63;100.00
49122;BME280;35529;44.342;25.944;2023-01-25T08:08:15;102455.53;;;3.59;100.00
49122;BME280;35529;44.342;25.944;2023-01-25T08:10:41;102457.38;;;3.44;100.00
49122;BME280;35529;44.342;25.944;2023-01-25T08:13:07;102454.75;;;3.44;100.00
49122;BME280;35529;44.342;25.944;2023-01-25T08:15:33;102450.81;;;3.51;100.00
49122;BME280;35529;44.342;25.944;2023-01-25T08:17:59;102456.78;;;3.53;100.00
49122;BME280;35529;44.342;25.944;2023-01-25T08:20:26;102460.16;;;3.55;100.00
49122;BME280;35529;44.342;25.944;2023-01-25T08:22:52;102452.34;;;3.53;100.00
49122;BME280;35529;44.342;25.944;2023-01-25T08:25:18;102456.56;;;3.56;100.00
49122;BME280;35529;44.342;25.944;2023-01-25T08:27:44;102454.69;;;3.58;100.00
49122;BME280;35529;44.342;25.944;2023-01-25T08:30:10;102451.84;;;3.48;100.00
49122;BME280;35529;44.342;25.944;2023-01-25T08:32:37;102443.09;;;3.48;100.00
49122;BME280;35529;44.342;25.944;2023-01-25T08:35:03;102461.38;;;3.49;100.00
49122;BME280;35529;44.342;25.944;2023-01-25T08:37:30;102461.44;;;3.62;100.00
49122;BME280;35529;44.342;25.944;2023-01-25T08:39:56;102455.97;;;3.65;100.00
49122;BME280;35529;44.342;25.944;2023-01-25T08:42:23;102449.28;;;3.74;100.00
49122;BME280;35529;44.342;25.944;2023-01-25T08:44:49;102450.63;;;3.80;100.00
49122;BME280;35529;44.342;25.944;2023-01-25T08:47:15;102452.66;;;3.89;100.00
49122;BME280;35529;44.342;25.944;2023-01-25T08:49:41;102446.88;;;3.97;100.00
49122;BME280;35529;44.342;25.944;2023-01-25T08:52:07;102457.94;;;4.02;100.00
49122;BME280;35529;44.342;25.944;2023-01-25T08:54:33;102455.91;;;4.06;100.00
49122;BME280;35529;44.342;25.944;2023-01-25T08:57:02;102446.78;;;4.11;100.00
49122;BME280;35529;44.342;25.944;2023-01-25T08:59:31;102448.78;;;4.08;100.00
49122;BME280;35529;44.342;25.944;2023-01-25T09:01:57;102453.16;;;4.07;100.00
49122;BME280;35529;44.342;25.944;2023-01-25T09:04:23;102445.69;;;4.14;100.00
49122;BME280;35529;44.342;25.944;2023-01-25T09:06:53;102436.53;;;4.32;100.00
49122;BME280;35529;44.342;25.944;2023-01-25T09:09:20;102442.97;;;4.41;100.00
49122;BME280;35529;44.342;25.944;2023-01-25T09:11:47;102441.69;;;4.47;100.00
49122;BME280;35529;44.342;25.944;2023-01-25T09:14:13;102437.19;;;4.49;100.00
49122;BME280;35529;44.342;25.944;2023-01-25T09:16:39;102440.97;;;4.45;100.00
49122;BME280;35529;44.342;25.944;2023-01-25T09:19:05;102432.09;;;4.46;100.00
49122;BME280;35529;44.342;25.944;2023-01-25T09:21:31;102436.78;;;4.42;100.00
49122;BME280;35529;44.342;25.944;2023-01-25T09:23:58;102429.88;;;4.52;100.00
49122;BME280;35529;44.342;25.944;2023-01-25T09:26:24;102430.09;;;4.62;100.00
49122;BME280;35529;44.342;25.944;2023-01-25T09:28:51;102428.94;;;4.66;100.00
49122;BME280;35529;44.342;25.944;2023-01-25T09:31:18;102421.63;;;4.70;100.00
49122;BME280;35529;44.342;25.944;2023-01-25T09:33:44;102419.34;;;4.65;100.00
49122;BME280;35529;44.342;25.944;2023-01-25T09:36:10;102410.94;;;4.60;100.00
49122;BME280;35529;44.342;25.944;2023-01-25T09:38:37;102406.31;;;4.51;100.00
49122;BME280;35529;44.342;25.944;2023-01-25T09:44:07;102404.78;;;4.73;100.00
49122;BME280;35529;44.342;25.944;2023-01-25T09:49:21;102402.53;;;4.92;100.00
49122;BME280;35529;44.342;25.944;2023-01-25T09:54:33;102399.06;;;5.16;100.00
49122;BME280;35529;44.342;25.944;2023-01-25T09:57:02;102398.19;;;5.15;100.00
49122;BME280;35529;44.342;25.944;2023-01-25T09:59:29;102404.31;;;5.16;100.00
49122;BME280;35529;44.342;25.944;2023-01-25T10:01:56;102389.72;;;5.23;100.00
49122;BME280;35529;44.342;25.944;2023-01-25T10:04:25;102384.91;;;5.17;100.00
49122;BME280;35529;44.342;25.944;2023-01-25T10:06:55;102375.69;;;5.11;100.00
49122;BME280;35529;44.342;25.944;2023-01-25T10:12:25;102366.59;;;5.15;100.00
49122;BME280;35529;44.342;25.944;2023-01-25T10:14:51;102356.63;;;5.32;100.00
49122;BME280;35529;44.342;25.944;2023-01-25T10:17:29;102365.28;;;5.45;100.00
49122;BME280;35529;44.342;25.944;2023-01-25T10:22:46;102353.03;;;5.44;100.00
49122;BME280;35529;44.342;25.944;2023-01-25T10:30:28;102340.50;;;5.59;100.00
49122;BME280;35529;44.342;25.944;2023-01-25T10:32:56;102339.75;;;5.57;100.00
49122;BME280;35529;44.342;25.944;2023-01-25T10:35:25;102329.72;;;5.51;100.00
49122;BME280;35529;44.342;25.944;2023-01-25T10:37:52;102327.56;;;5.56;100.00
49122;BME280;35529;44.342;25.944;2023-01-25T10:40:22;102313.66;;;5.54;100.00
49122;BME280;35529;44.342;25.944;2023-01-25T10:42:50;102314.88;;;5.61;100.00
49122;BME280;35529;44.342;25.944;2023-01-25T10:45:18;102311.97;;;5.53;100.00
49122;BME280;35529;44.342;25.944;2023-01-25T10:47:46;102306.94;;;5.50;100.00
49122;BME280;35529;44.342;25.944;2023-01-25T11:00:54;102284.38;;;5.23;100.00
49122;BME280;35529;44.342;25.944;2023-01-25T11:03:21;102279.13;;;5.12;100.00
49122;BME280;35529;44.342;25.944;2023-01-25T11:05:54;102273.84;;;4.76;100.00
49122;BME280;35529;44.342;25.944;2023-01-25T11:08:24;102253.97;;;4.72;100.00
49122;BME280;35529;44.342;25.944;2023-01-25T11:10:51;102261.81;;;4.85;100.00
49122;BME280;35529;44.342;25.944;2023-01-25T11:13:21;102257.66;;;4.69;100.00
49122;BME280;35529;44.342;25.944;2023-01-25T11:15:49;102252.66;;;4.78;100.00
49122;BME280;35529;44.342;25.944;2023-01-25T11:18:26;102254.84;;;4.84;100.00
49122;BME280;35529;44.342;25.944;2023-01-25T11:23:32;102246.78;;;4.98;100.00
49122;BME280;35529;44.342;25.944;2023-01-25T11:26:19;102242.22;;;5.00;100.00
49122;BME280;35529;44.342;25.944;2023-01-25T11:28:45;102240.41;;;5.01;100.00
49122;BME280;35529;44.342;25.944;2023-01-25T11:31:23;102233.31;;;4.90;100.00
49122;BME280;35529;44.342;25.944;2023-01-25T11:33:50;102226.28;;;4.91;100.00
49122;BME280;35529;44.342;25.944;2023-01-25T11:41:48;102218.78;;;5.20;100.00
49122;BME280;35529;44.342;25.944;2023-01-25T11:54:50;102207.03;;;5.01;100.00
49122;BME280;35529;44.342;25.944;2023-01-25T12:10:57;102190.53;;;5.11;100.00
49122;BME280;35529;44.342;25.944;2023-01-25T12:13:32;102194.13;;;5.21;100.00
49122;BME280;35529;44.342;25.944;2023-01-25T12:29:10;102174.97;;;5.19;100.00
49122;BME280;35529;44.342;25.944;2023-01-25T12:31:41;102175.69;;;5.32;100.00
49122;BME280;35529;44.342;25.944;2023-01-25T12:34:30;102171.75;;;5.27;100.00
49122;BME280;35529;44.342;25.944;2023-01-25T12:36:58;102165.06;;;5.23;100.00
49122;BME280;35529;44.342;25.944;2023-01-25T12:39:28;102157.84;;;5.25;100.00
49122;BME280;35529;44.342;25.944;2023-01-25T12:42:06;102155.47;;;5.22;100.00
49122;BME280;35529;44.342;25.944;2023-01-25T12:44:40;102161.34;;;5.25;100.00
49122;BME280;35529;44.342;25.944;2023-01-25T12:47:15;102164.19;;;5.22;100.00
49122;BME280;35529;44.342;25.944;2023-01-25T12:52:17;102160.38;;;5.15;100.00
49122;BME280;35529;44.342;25.944;2023-01-25T12:54:45;102158.22;;;5.09;100.00
49122;BME280;35529;44.342;25.944;2023-01-25T12:57:18;102160.00;;;5.19;100.00
49122;BME280;35529;44.342;25.944;2023-01-25T12:59:49;102154.16;;;5.16;100.00
49122;BME280;35529;44.342;25.944;2023-01-25T13:05:15;102141.00;;;5.16;100.00
49122;BME280;35529;44.342;25.944;2023-01-25T13:10:35;102137.00;;;4.87;100.00
49122;BME280;35529;44.342;25.944;2023-01-25T13:13:17;102122.53;;;4.70;100.00
49122;BME280;35529;44.342;25.944;2023-01-25T13:15:44;102112.81;;;4.60;100.00
49122;BME280;35529;44.342;25.944;2023-01-25T13:20:53;102134.56;;;4.50;100.00
49122;BME280;35529;44.342;25.944;2023-01-25T13:23:28;102145.09;;;4.62;100.00
49122;BME280;35529;44.342;25.944;2023-01-25T13:28:41;102150.22;;;4.52;100.00
49122;BME280;35529;44.342;25.944;2023-01-25T13:31:09;102153.34;;;4.57;100.00
49122;BME280;35529;44.342;25.944;2023-01-25T13:33:55;102152.84;;;4.52;100.00
49122;BME280;35529;44.342;25.944;2023-01-25T13:36:42;102135.88;;;4.45;100.00
49122;BME280;35529;44.342;25.944;2023-01-25T13:44:28;102129.34;;;4.26;100.00
49122;BME280;35529;44.342;25.944;2023-01-25T13:46:55;102130.69;;;4.08;100.00
49122;BME280;35529;44.342;25.944;2023-01-25T13:49:23;102124.19;;;4.00;100.00
49122;BME280;35529;44.342;25.944;2023-01-25T13:51:52;102135.09;;;4.07;100.00
49122;BME280;35529;44.342;25.944;2023-01-25T13:54:21;102151.50;;;4.11;100.00
49122;BME280;35529;44.342;25.944;2023-01-25T13:56:47;102139.69;;;4.16;100.00
49122;BME280;35529;44.342;25.944;2023-01-25T13:59:23;102152.38;;;4.23;100.00
49122;BME280;35529;44.342;25.944;2023-01-25T14:01:49;102162.78;;;4.24;100.00
49122;BME280;35529;44.342;25.944;2023-01-25T14:04:16;102164.59;;;4.24;100.00
49122;BME280;35529;44.342;25.944;2023-01-25T14:06:43;102162.47;;;4.29;100.00
49122;BME280;35529;44.342;25.944;2023-01-25T14:09:14;102151.22;;;4.27;100.00
49122;BME280;35529;44.342;25.944;2023-01-25T14:11:54;102142.22;;;4.18;100.00
49122;BME280;35529;44.342;25.944;2023-01-25T14:14:28;102138.25;;;4.12;100.00
49122;BME280;35529;44.342;25.944;2023-01-25T14:19:34;102141.47;;;4.16;100.00
49122;BME280;35529;44.342;25.944;2023-01-25T14:22:45;102155.84;;;4.23;100.00
49122;BME280;35529;44.342;25.944;2023-01-25T14:27:33;102136.63;;;4.23;100.00
49122;BME280;35529;44.342;25.944;2023-01-25T14:29:59;102144.34;;;4.13;100.00
49122;BME280;35529;44.342;25.944;2023-01-25T14:32:26;102138.81;;;4.05;100.00
49122;BME280;35529;44.342;25.944;2023-01-25T14:34:52;102135.34;;;4.04;100.00